Terminal Aerodrome Forecast
Issued by NWS Sioux Falls, SD

Home | Current Version | Previous Version | Text Only | Print | Product List | Glossary On
Versions: 1 2 3 4 5 6 7 8 9 10 11 12 13
000
FTUS43 KFSD 041131
TAFFSD
TAF
KFSD 041131Z 0412/0512 VRB03KT P6SM OVC250
     FM041600 13007KT P6SM SCT200
     FM042000 15008KT P6SM BKN080=

USA.gov is the U.S. government's official web portal to all federal, state and local government web resources and services.